Aviation Digital Data Service (ADDS)

Output produced by METARs form (1403 UTC 23 January 2019)
found at http://www.aviationweather.gov/metar/data/
 
METAR text: KNCA 231356Z 14009KT 10SM SCT100 BKN250 14/08 A3040 RMK AO2 SLP295 T01390083
Conditions at: KNCA (NEW RIVER MCAS , NC, US) observed 1356 UTC 23 January 2019
Temperature: 13.9°C (57°F)
Dewpoint: 8.3°C (47°F) [RH = 69%]
Pressure (altimeter): 30.40 inches Hg (1029.5 mb)
[Sea-level pressure: 1029.5 mb]
Winds: from the SE (140 degrees) at 10 MPH (9 knots; 4.6 m/s)
Visibility: 10 or more miles (16+ km)
Ceiling: 25000 feet AGL
Clouds: scattered clouds at 10000 feet AGL
broken clouds at 25000 feet AGL
Weather: no significant weather observed at this time

METAR text: KNCA 231256Z 15012KT 10SM SCT100 BKN250 12/08 A3041 RMK AO2 SLP300 T01220083
Conditions at: KNCA (NEW RIVER MCAS , NC, US) observed 1256 UTC 23 January 2019
Temperature: 12.2°C (54°F)
Dewpoint: 8.3°C (47°F) [RH = 77%]
Pressure (altimeter): 30.41 inches Hg (1029.9 mb)
[Sea-level pressure: 1030.0 mb]
Winds: from the SSE (150 degrees) at 14 MPH (12 knots; 6.2 m/s)
Visibility: 10 or more miles (16+ km)
Ceiling: 25000 feet AGL
Clouds: scattered clouds at 10000 feet AGL
broken clouds at 25000 feet AGL
Weather: no significant weather observed at this time

METAR text: KNCA 231156Z 16003KT 10SM FEW070 05/04 A3043 RMK AO2 SLP307 T00500039 10050 21006 56018
Conditions at: KNCA (NEW RIVER MCAS , NC, US) observed 1156 UTC 23 January 2019
Temperature: 5.0°C (41°F)
Dewpoint: 3.9°C (39°F) [RH = 93%]
Pressure (altimeter): 30.43 inches Hg (1030.6 mb)
[Sea-level pressure: 1030.7 mb]
Winds: from the SSE (160 degrees) at 3 MPH (3 knots; 1.5 m/s)
Visibility: 10 or more miles (16+ km)
Ceiling: at least 12,000 feet AGL
Clouds: few clouds at 7000 feet AGL
Weather: no significant weather observed at this time

METAR text: KNCA 231107Z 12005KT 7SM SCT002 04/04 A3044 RMK AO2 T00440039
Conditions at: KNCA (NEW RIVER MCAS , NC, US) observed 1107 UTC 23 January 2019
Temperature: 4.4°C (40°F)
Dewpoint: 3.9°C (39°F) [RH = 97%]
Pressure (altimeter): 30.44 inches Hg (1030.9 mb)
Winds: from the ESE (120 degrees) at 6 MPH (5 knots; 2.6 m/s)
Visibility: 7 miles (11 km)
Ceiling: at least 12,000 feet AGL
Clouds: scattered clouds at 200 feet AGL
Weather: no significant weather observed at this time

METAR text: KNCA 231053Z 12006KT 3SM BR BKN002 04/04 A3045 RMK AO2 SLP312 T00440039
Conditions at: KNCA (NEW RIVER MCAS , NC, US) observed 1053 UTC 23 January 2019
Temperature: 4.4°C (40°F)
Dewpoint: 3.9°C (39°F) [RH = 97%]
Pressure (altimeter): 30.45 inches Hg (1031.2 mb)
[Sea-level pressure: 1031.2 mb]
Winds: from the ESE (120 degrees) at 7 MPH (6 knots; 3.1 m/s)
Visibility: 3 miles ( 5 km)
Ceiling: 200 feet AGL
Clouds: broken clouds at 200 feet AGL
Weather: BR  (mist)

METAR text: KNCA 231046Z 12007KT 1 3/4SM BR OVC002 04/03 A3045 RMK AO2 T00390033
Conditions at: KNCA (NEW RIVER MCAS , NC, US) observed 1046 UTC 23 January 2019
Temperature: 3.9°C (39°F)
Dewpoint: 3.3°C (38°F) [RH = 96%]
Pressure (altimeter): 30.45 inches Hg (1031.2 mb)
Winds: from the ESE (120 degrees) at 8 MPH (7 knots; 3.6 m/s)
Visibility: 1.75 miles (2.82 km)
Ceiling: 200 feet AGL
Clouds: overcast cloud deck at 200 feet AGL
Weather: BR  (mist)

METAR text: KNCA 231038Z 12007KT 1SM BR VV002 04/03 A3045 RMK AO2 T00390033
Conditions at: KNCA (NEW RIVER MCAS , NC, US) observed 1038 UTC 23 January 2019
Temperature: 3.9°C (39°F)
Dewpoint: 3.3°C (38°F) [RH = 96%]
Pressure (altimeter): 30.45 inches Hg (1031.2 mb)
Winds: from the ESE (120 degrees) at 8 MPH (7 knots; 3.6 m/s)
Visibility: 1.00 miles (1.61 km)
Ceiling: indefinite ceiling with vertical visibility of 200 feet AGL
Clouds: obscured sky
Weather: BR  (mist)

METAR text: KNCA 231029Z 11007KT 1 1/2SM BR OVC002 03/03 A3045 RMK AO2 T00330028
Conditions at: KNCA (NEW RIVER MCAS , NC, US) observed 1029 UTC 23 January 2019
Temperature: 3.3°C (38°F)
Dewpoint: 2.8°C (37°F) [RH = 97%]
Pressure (altimeter): 30.45 inches Hg (1031.2 mb)
Winds: from the ESE (110 degrees) at 8 MPH (7 knots; 3.6 m/s)
Visibility: 1.50 miles (2.41 km)
Ceiling: 200 feet AGL
Clouds: overcast cloud deck at 200 feet AGL
Weather: BR  (mist)

METAR text: KNCA 231012Z 10005KT 10SM OVC002 01/00 A3046 RMK AO2 T00110000
Conditions at: KNCA (NEW RIVER MCAS , NC, US) observed 1012 UTC 23 January 2019
Temperature: 1.1°C (34°F)
Dewpoint: 0.0°C (32°F) [RH = 92%]
Pressure (altimeter): 30.46 inches Hg (1031.6 mb)
Winds: from the E (100 degrees) at 6 MPH (5 knots; 2.6 m/s)
Visibility: 10 or more miles (16+ km)
Ceiling: 200 feet AGL
Clouds: overcast cloud deck at 200 feet AGL
Weather: no significant weather observed at this time

METAR text: KNCA 230956Z 11004KT 10SM OVC003 01/M01 A3046 RMK AO2 SLP317 T00061006
Conditions at: KNCA (NEW RIVER MCAS , NC, US) observed 0956 UTC 23 January 2019
Temperature: 0.6°C (33°F)
Dewpoint: -0.6°C (31°F) [RH = 92%]
Pressure (altimeter): 30.46 inches Hg (1031.6 mb)
[Sea-level pressure: 1031.7 mb]
Winds: from the ESE (110 degrees) at 5 MPH (4 knots; 2.1 m/s)
Visibility: 10 or more miles (16+ km)
Ceiling: 300 feet AGL
Clouds: overcast cloud deck at 300 feet AGL
Weather: no significant weather observed at this time

METAR text: KNCA 230943Z 00000KT 10SM OVC003 01/00 A3047 RMK AO2 T00060000
Conditions at: KNCA (NEW RIVER MCAS , NC, US) observed 0943 UTC 23 January 2019
Temperature: 0.6°C (33°F)
Dewpoint: 0.0°C (32°F) [RH = 96%]
Pressure (altimeter): 30.47 inches Hg (1031.9 mb)
Winds: calm
Visibility: 10 or more miles (16+ km)
Ceiling: 300 feet AGL
Clouds: overcast cloud deck at 300 feet AGL
Weather: no significant weather observed at this time

METAR text: KNCA 230919Z 00000KT 10SM BKN004 01/M01 A3048 RMK AO2 T00061011
Conditions at: KNCA (NEW RIVER MCAS , NC, US) observed 0919 UTC 23 January 2019
Temperature: 0.6°C (33°F)
Dewpoint: -1.1°C (30°F) [RH = 88%]
Pressure (altimeter): 30.48 inches Hg (1032.3 mb)
Winds: calm
Visibility: 10 or more miles (16+ km)
Ceiling: 400 feet AGL
Clouds: broken clouds at 400 feet AGL
Weather: no significant weather observed at this time

METAR text: KNCA 230856Z 08004KT 10SM SCT005 01/M01 A3048 RMK AO2 SLP325 T00111006 58026
Conditions at: KNCA (NEW RIVER MCAS , NC, US) observed 0856 UTC 23 January 2019
Temperature: 1.1°C (34°F)
Dewpoint: -0.6°C (31°F) [RH = 88%]
Pressure (altimeter): 30.48 inches Hg (1032.3 mb)
[Sea-level pressure: 1032.5 mb]
Winds: from the E (80 degrees) at 5 MPH (4 knots; 2.1 m/s)
Visibility: 10 or more miles (16+ km)
Ceiling: at least 12,000 feet AGL
Clouds: scattered clouds at 500 feet AGL
Weather: no significant weather observed at this time

METAR text: KNCA 230839Z 07003KT 10SM FEW005 SCT065 01/M01 A3049 RMK AO2 T00111006
Conditions at: KNCA (NEW RIVER MCAS , NC, US) observed 0839 UTC 23 January 2019
Temperature: 1.1°C (34°F)
Dewpoint: -0.6°C (31°F) [RH = 88%]
Pressure (altimeter): 30.49 inches Hg (1032.6 mb)
Winds: from the ENE (70 degrees) at 3 MPH (3 knots; 1.5 m/s)
Visibility: 10 or more miles (16+ km)
Ceiling: at least 12,000 feet AGL
Clouds: few clouds at 500 feet AGL
scattered clouds at 6500 feet AGL
Weather: no significant weather observed at this time

METAR text: KNCA 230756Z 09007KT 10SM BKN065 02/M01 A3051 RMK AO2 SLP335 T00171006
Conditions at: KNCA (NEW RIVER MCAS , NC, US) observed 0756 UTC 23 January 2019
Temperature: 1.7°C (35°F)
Dewpoint: -0.6°C (31°F) [RH = 85%]
Pressure (altimeter): 30.51 inches Hg (1033.3 mb)
[Sea-level pressure: 1033.5 mb]
Winds: from the E (90 degrees) at 8 MPH (7 knots; 3.6 m/s)
Visibility: 10 or more miles (16+ km)
Ceiling: 6500 feet AGL
Clouds: broken clouds at 6500 feet AGL
Weather: no significant weather observed at this time

METAR text: KNCA 230656Z 08007KT 10SM FEW060 01/M02 A3054 RMK AO2 SLP345 T00061017
Conditions at: KNCA (NEW RIVER MCAS , NC, US) observed 0656 UTC 23 January 2019
Temperature: 0.6°C (33°F)
Dewpoint: -1.7°C (29°F) [RH = 85%]
Pressure (altimeter): 30.54 inches Hg (1034.3 mb)
[Sea-level pressure: 1034.5 mb]
Winds: from the E (80 degrees) at 8 MPH (7 knots; 3.6 m/s)
Visibility: 10 or more miles (16+ km)
Ceiling: at least 12,000 feet AGL
Clouds: few clouds at 6000 feet AGL
Weather: no significant weather observed at this time

METAR text: KNCA 230556Z 02004KT 10SM FEW060 M01/M03 A3056 RMK AO2 SLP351 T10061033 10028 21006 56016
Conditions at: KNCA (NEW RIVER MCAS , NC, US) observed 0556 UTC 23 January 2019
Temperature: -0.6°C (31°F)
Dewpoint: -3.3°C (26°F) [RH = 82%]
Pressure (altimeter): 30.56 inches Hg (1035.0 mb)
[Sea-level pressure: 1035.1 mb]
Winds: from the NNE (20 degrees) at 5 MPH (4 knots; 2.1 m/s)
Visibility: 10 or more miles (16+ km)
Ceiling: at least 12,000 feet AGL
Clouds: few clouds at 6000 feet AGL
Weather: no significant weather observed at this time

METAR text: KNCA 230456Z 07006KT 10SM CLR 01/M03 A3057 RMK AO2 SLP354 T00061028 400611072
Conditions at: KNCA (NEW RIVER MCAS , NC, US) observed 0456 UTC 23 January 2019
Temperature: 0.6°C (33°F)
Dewpoint: -2.8°C (27°F) [RH = 78%]
Pressure (altimeter): 30.57 inches Hg (1035.3 mb)
[Sea-level pressure: 1035.4 mb]
Winds: from the ENE (70 degrees) at 7 MPH (6 knots; 3.1 m/s)
Visibility: 10 or more miles (16+ km)
Ceiling: at least 12,000 feet AGL
Clouds: sky clear below 12,000 feet AGL
Weather: no significant weather observed at this time

METAR text: KNCA 230356Z 09006KT 10SM CLR 01/M03 A3059 RMK AO2 SLP361 T00061033
Conditions at: KNCA (NEW RIVER MCAS , NC, US) observed 0356 UTC 23 January 2019
Temperature: 0.6°C (33°F)
Dewpoint: -3.3°C (26°F) [RH = 75%]
Pressure (altimeter): 30.59 inches Hg (1036.0 mb)
[Sea-level pressure: 1036.1 mb]
Winds: from the E (90 degrees) at 7 MPH (6 knots; 3.1 m/s)
Visibility: 10 or more miles (16+ km)
Ceiling: at least 12,000 feet AGL
Clouds: sky clear below 12,000 feet AGL
Weather: no significant weather observed at this time

METAR text: KNCA 230256Z 08007KT 10SM CLR 01/M03 A3061 RMK AO2 SLP367 T00061033 58010
Conditions at: KNCA (NEW RIVER MCAS , NC, US) observed 0256 UTC 23 January 2019
Temperature: 0.6°C (33°F)
Dewpoint: -3.3°C (26°F) [RH = 75%]
Pressure (altimeter): 30.61 inches Hg (1036.7 mb)
[Sea-level pressure: 1036.7 mb]
Winds: from the E (80 degrees) at 8 MPH (7 knots; 3.6 m/s)
Visibility: 10 or more miles (16+ km)
Ceiling: at least 12,000 feet AGL
Clouds: sky clear below 12,000 feet AGL
Weather: no significant weather observed at this time

METAR text: KNCA 230156Z 09009KT 10SM CLR 01/M05 A3062 RMK AO2 SLP372 T00061050
Conditions at: KNCA (NEW RIVER MCAS , NC, US) observed 0156 UTC 23 January 2019
Temperature: 0.6°C (33°F)
Dewpoint: -5.0°C (23°F) [RH = 66%]
Pressure (altimeter): 30.62 inches Hg (1037.0 mb)
[Sea-level pressure: 1037.2 mb]
Winds: from the E (90 degrees) at 10 MPH (9 knots; 4.6 m/s)
Visibility: 10 or more miles (16+ km)
Ceiling: at least 12,000 feet AGL
Clouds: sky clear below 12,000 feet AGL
Weather: no significant weather observed at this time

METAR text: KNCA 230056Z 08009KT 10SM CLR 02/M06 A3064 RMK AO2 SLP376 T00171061
Conditions at: KNCA (NEW RIVER MCAS , NC, US) observed 0056 UTC 23 January 2019
Temperature: 1.7°C (35°F)
Dewpoint: -6.1°C (21°F) [RH = 56%]
Pressure (altimeter): 30.64 inches Hg (1037.7 mb)
[Sea-level pressure: 1037.6 mb]
Winds: from the E (80 degrees) at 10 MPH (9 knots; 4.6 m/s)
Visibility: 10 or more miles (16+ km)
Ceiling: at least 12,000 feet AGL
Clouds: sky clear below 12,000 feet AGL
Weather: no significant weather observed at this time

METAR text: KNCA 222356Z 11008KT 10SM CLR 03/M06 A3064 RMK AO2 SLP378 T00281056 10061 20006 58002
Conditions at: KNCA (NEW RIVER MCAS , NC, US) observed 2356 UTC 22 January 2019
Temperature: 2.8°C (37°F)
Dewpoint: -5.6°C (22°F) [RH = 54%]
Pressure (altimeter): 30.64 inches Hg (1037.7 mb)
[Sea-level pressure: 1037.8 mb]
Winds: from the ESE (110 degrees) at 9 MPH (8 knots; 4.1 m/s)
Visibility: 10 or more miles (16+ km)
Ceiling: at least 12,000 feet AGL
Clouds: sky clear below 12,000 feet AGL
Weather: no significant weather observed at this time

METAR text: KNCA 222256Z 16005KT 10SM CLR 02/M08 A3065 RMK AO2 SLP380 T00221078
Conditions at: KNCA (NEW RIVER MCAS , NC, US) observed 2256 UTC 22 January 2019
Temperature: 2.2°C (36°F)
Dewpoint: -7.8°C (18°F) [RH = 47%]
Pressure (altimeter): 30.65 inches Hg (1038.0 mb)
[Sea-level pressure: 1038.0 mb]
Winds: from the SSE (160 degrees) at 6 MPH (5 knots; 2.6 m/s)
Visibility: 10 or more miles (16+ km)
Ceiling: at least 12,000 feet AGL
Clouds: sky clear below 12,000 feet AGL
Weather: no significant weather observed at this time

METAR text: KNCA 222156Z 13003KT 10SM CLR 04/M12 A3064 RMK AO2 SLP378 T00441122
Conditions at: KNCA (NEW RIVER MCAS , NC, US) observed 2156 UTC 22 January 2019
Temperature: 4.4°C (40°F)
Dewpoint: -12.2°C (10°F) [RH = 29%]
Pressure (altimeter): 30.64 inches Hg (1037.7 mb)
[Sea-level pressure: 1037.8 mb]
Winds: from the SE (130 degrees) at 3 MPH (3 knots; 1.5 m/s)
Visibility: 10 or more miles (16+ km)
Ceiling: at least 12,000 feet AGL
Clouds: sky clear below 12,000 feet AGL
Weather: no significant weather observed at this time

METAR text: KNCA 222056Z 00000KT 10SM CLR 05/M14 A3064 RMK AO2 SLP379 T00501144 56013
Conditions at: KNCA (NEW RIVER MCAS , NC, US) observed 2056 UTC 22 January 2019
Temperature: 5.0°C (41°F)
Dewpoint: -14.4°C ( 6°F) [RH = 23%]
Pressure (altimeter): 30.64 inches Hg (1037.7 mb)
[Sea-level pressure: 1037.9 mb]
Winds: calm
Visibility: 10 or more miles (16+ km)
Ceiling: at least 12,000 feet AGL
Clouds: sky clear below 12,000 feet AGL
Weather: no significant weather observed at this time

METAR text: KNCA 221956Z 00000KT 10SM CLR 05/M14 A3065 RMK AO2 SLP379 T00501144
Conditions at: KNCA (NEW RIVER MCAS , NC, US) observed 1956 UTC 22 January 2019
Temperature: 5.0°C (41°F)
Dewpoint: -14.4°C ( 6°F) [RH = 23%]
Pressure (altimeter): 30.65 inches Hg (1038.0 mb)
[Sea-level pressure: 1037.9 mb]
Winds: calm
Visibility: 10 or more miles (16+ km)
Ceiling: at least 12,000 feet AGL
Clouds: sky clear below 12,000 feet AGL
Weather: no significant weather observed at this time

METAR text: KNCA 221856Z 12004KT 10SM FEW250 04/M14 A3066 RMK AO2 SLP384 T00391139
Conditions at: KNCA (NEW RIVER MCAS , NC, US) observed 1856 UTC 22 January 2019
Temperature: 3.9°C (39°F)
Dewpoint: -13.9°C ( 7°F) [RH = 26%]
Pressure (altimeter): 30.66 inches Hg (1038.4 mb)
[Sea-level pressure: 1038.4 mb]
Winds: from the ESE (120 degrees) at 5 MPH (4 knots; 2.1 m/s)
Visibility: 10 or more miles (16+ km)
Ceiling: at least 12,000 feet AGL
Clouds: few clouds at 25000 feet AGL
Weather: no significant weather observed at this time

METAR text: KNCA 221756Z VRB03KT 10SM FEW250 02/M14 A3068 RMK AO2 SLP392 T00221144 10033 21061
Conditions at: KNCA (NEW RIVER MCAS , NC, US) observed 1756 UTC 22 January 2019
Temperature: 2.2°C (36°F)
Dewpoint: -14.4°C ( 6°F) [RH = 28%]
Pressure (altimeter): 30.68 inches Hg (1039.0 mb)
[Sea-level pressure: 1039.2 mb]
Winds: variable direction winds at 3 MPH (3 knots; 1.5 m/s)
Visibility: 10 or more miles (16+ km)
Ceiling: at least 12,000 feet AGL
Clouds: few clouds at 25000 feet AGL
Weather: no significant weather observed at this time

METAR text: KNCA 221656Z 33006KT 10SM CLR 01/M14 A3072 RMK AO2 SLP405 T00111139
Conditions at: KNCA (NEW RIVER MCAS , NC, US) observed 1656 UTC 22 January 2019
Temperature: 1.1°C (34°F)
Dewpoint: -13.9°C ( 7°F) [RH = 32%]
Pressure (altimeter): 30.72 inches Hg (1040.4 mb)
[Sea-level pressure: 1040.5 mb]
Winds: from the NNW (330 degrees) at 7 MPH (6 knots; 3.1 m/s)
Visibility: 10 or more miles (16+ km)
Ceiling: at least 12,000 feet AGL
Clouds: sky clear below 12,000 feet AGL
Weather: no significant weather observed at this time

METAR text: KNCA 221556Z 35007KT 10SM SCT250 00/M14 A3074 RMK AO2 SLP412 T00001139
Conditions at: KNCA (NEW RIVER MCAS , NC, US) observed 1556 UTC 22 January 2019
Temperature: 0.0°C (32°F)
Dewpoint: -13.9°C ( 7°F) [RH = 34%]
Pressure (altimeter): 30.74 inches Hg (1041.1 mb)
[Sea-level pressure: 1041.2 mb]
Winds: from the N (350 degrees) at 8 MPH (7 knots; 3.6 m/s)
Visibility: 10 or more miles (16+ km)
Ceiling: at least 12,000 feet AGL
Clouds: scattered clouds at 25000 feet AGL
Weather: no significant weather observed at this time

METAR text: KNCA 221456Z 02008KT 10SM FEW250 M02/M12 A3073 RMK AO2 SLP409 T10171122 53026
Conditions at: KNCA (NEW RIVER MCAS , NC, US) observed 1456 UTC 22 January 2019
Temperature: -1.7°C (29°F)
Dewpoint: -12.2°C (10°F) [RH = 45%]
Pressure (altimeter): 30.73 inches Hg (1040.7 mb)
[Sea-level pressure: 1040.9 mb]
Winds: from the NNE (20 degrees) at 9 MPH (8 knots; 4.1 m/s)
Visibility: 10 or more miles (16+ km)
Ceiling: at least 12,000 feet AGL
Clouds: few clouds at 25000 feet AGL
Weather: no significant weather observed at this time

METAR text: KNCA 221356Z 02008KT 10SM SCT250 M04/M13 A3070 RMK AO2 SLP399 T10391128
Conditions at: KNCA (NEW RIVER MCAS , NC, US) observed 1356 UTC 22 January 2019
Temperature: -3.9°C (25°F)
Dewpoint: -12.8°C ( 9°F) [RH = 50%]
Pressure (altimeter): 30.70 inches Hg (1039.7 mb)
[Sea-level pressure: 1039.9 mb]
Winds: from the NNE (20 degrees) at 9 MPH (8 knots; 4.1 m/s)
Visibility: 10 or more miles (16+ km)
Ceiling: at least 12,000 feet AGL
Clouds: scattered clouds at 25000 feet AGL
Weather: no significant weather observed at this time

METAR text: KNCA 221256Z 01005KT 10SM SCT250 M05/M12 A3068 RMK AO2 SLP392 T10501117
Conditions at: KNCA (NEW RIVER MCAS , NC, US) observed 1256 UTC 22 January 2019
Temperature: -5.0°C (23°F)
Dewpoint: -11.7°C (11°F) [RH = 59%]
Pressure (altimeter): 30.68 inches Hg (1039.0 mb)
[Sea-level pressure: 1039.2 mb]
Winds: from the N (10 degrees) at 6 MPH (5 knots; 2.6 m/s)
Visibility: 10 or more miles (16+ km)
Ceiling: at least 12,000 feet AGL
Clouds: scattered clouds at 25000 feet AGL
Weather: no significant weather observed at this time

METAR text: KNCA 221156Z AUTO 03008KT 10SM CLR M06/M13 A3065 RMK AO2 SLP382 T10561128 11050 21072 53012
Conditions at: KNCA (NEW RIVER MCAS , NC, US) observed 1156 UTC 22 January 2019
Temperature: -5.6°C (22°F)
Dewpoint: -12.8°C ( 9°F) [RH = 57%]
Pressure (altimeter): 30.65 inches Hg (1038.0 mb)
[Sea-level pressure: 1038.2 mb]
Winds: from the NNE (30 degrees) at 9 MPH (8 knots; 4.1 m/s)
Visibility: 10 or more miles (16+ km)
Ceiling: at least 12,000 feet AGL
Clouds: sky clear below 12,000 feet AGL
Weather: automated observation with no human augmentation;
there may or may not be significant weather present at this time

METAR text: KNCA 221056Z AUTO 02006KT 10SM CLR M06/M13 A3063 RMK AO2 SLP375 T10611128
Conditions at: KNCA (NEW RIVER MCAS , NC, US) observed 1056 UTC 22 January 2019
Temperature: -6.1°C (21°F)
Dewpoint: -12.8°C ( 9°F) [RH = 59%]
Pressure (altimeter): 30.63 inches Hg (1037.3 mb)
[Sea-level pressure: 1037.5 mb]
Winds: from the NNE (20 degrees) at 7 MPH (6 knots; 3.1 m/s)
Visibility: 10 or more miles (16+ km)
Ceiling: at least 12,000 feet AGL
Clouds: sky clear below 12,000 feet AGL
Weather: automated observation with no human augmentation;
there may or may not be significant weather present at this time

METAR text: KNCA 220956Z AUTO 36006KT 10SM CLR M05/M12 A3063 RMK AO2 SLP376 T10501122
Conditions at: KNCA (NEW RIVER MCAS , NC, US) observed 0956 UTC 22 January 2019
Temperature: -5.0°C (23°F)
Dewpoint: -12.2°C (10°F) [RH = 57%]
Pressure (altimeter): 30.63 inches Hg (1037.3 mb)
[Sea-level pressure: 1037.6 mb]
Winds: from the N (360 degrees) at 7 MPH (6 knots; 3.1 m/s)
Visibility: 10 or more miles (16+ km)
Ceiling: at least 12,000 feet AGL
Clouds: sky clear below 12,000 feet AGL
Weather: automated observation with no human augmentation;
there may or may not be significant weather present at this time

METAR text: KNCA 220856Z AUTO 34004KT 10SM CLR M06/M12 A3062 RMK AO2 SLP370 T10561117 50007
Conditions at: KNCA (NEW RIVER MCAS , NC, US) observed 0856 UTC 22 January 2019
Temperature: -5.6°C (22°F)
Dewpoint: -11.7°C (11°F) [RH = 62%]
Pressure (altimeter): 30.62 inches Hg (1037.0 mb)
[Sea-level pressure: 1037.0 mb]
Winds: from the NNW (340 degrees) at 5 MPH (4 knots; 2.1 m/s)
Visibility: 10 or more miles (16+ km)
Ceiling: at least 12,000 feet AGL
Clouds: sky clear below 12,000 feet AGL
Weather: automated observation with no human augmentation;
there may or may not be significant weather present at this time

METAR text: KNCA 220756Z AUTO 28003KT 10SM CLR M07/M11 A3062 RMK AO2 SLP370 T10671106
Conditions at: KNCA (NEW RIVER MCAS , NC, US) observed 0756 UTC 22 January 2019
Temperature: -6.7°C (20°F)
Dewpoint: -10.6°C (13°F) [RH = 74%]
Pressure (altimeter): 30.62 inches Hg (1037.0 mb)
[Sea-level pressure: 1037.0 mb]
Winds: from the W (280 degrees) at 3 MPH (3 knots; 1.5 m/s)
Visibility: 10 or more miles (16+ km)
Ceiling: at least 12,000 feet AGL
Clouds: sky clear below 12,000 feet AGL
Weather: automated observation with no human augmentation;
there may or may not be significant weather present at this time

METAR text: KNCA 220656Z AUTO 00000KT 10SM CLR M06/M11 A3061 RMK AO2 SLP366 T10611106
Conditions at: KNCA (NEW RIVER MCAS , NC, US) observed 0656 UTC 22 January 2019
Temperature: -6.1°C (21°F)
Dewpoint: -10.6°C (13°F) [RH = 70%]
Pressure (altimeter): 30.61 inches Hg (1036.7 mb)
[Sea-level pressure: 1036.6 mb]
Winds: calm
Visibility: 10 or more miles (16+ km)
Ceiling: at least 12,000 feet AGL
Clouds: sky clear below 12,000 feet AGL
Weather: automated observation with no human augmentation;
there may or may not be significant weather present at this time

METAR text: KNCA 220556Z AUTO 00000KT 10SM CLR M07/M11 A3060 RMK AO2 SLP363 T10671106 11022 21067 51014
Conditions at: KNCA (NEW RIVER MCAS , NC, US) observed 0556 UTC 22 January 2019
Temperature: -6.7°C (20°F)
Dewpoint: -10.6°C (13°F) [RH = 74%]
Pressure (altimeter): 30.60 inches Hg (1036.3 mb)
[Sea-level pressure: 1036.3 mb]
Winds: calm
Visibility: 10 or more miles (16+ km)
Ceiling: at least 12,000 feet AGL
Clouds: sky clear below 12,000 feet AGL
Weather: automated observation with no human augmentation;
there may or may not be significant weather present at this time

METAR text: KNCA 220456Z AUTO 00000KT 10SM CLR M06/M11 A3059 RMK AO2 SLP361 T10611111 400111067
Conditions at: KNCA (NEW RIVER MCAS , NC, US) observed 0456 UTC 22 January 2019
Temperature: -6.1°C (21°F)
Dewpoint: -11.1°C (12°F) [RH = 68%]
Pressure (altimeter): 30.59 inches Hg (1036.0 mb)
[Sea-level pressure: 1036.1 mb]
Winds: calm
Visibility: 10 or more miles (16+ km)
Ceiling: at least 12,000 feet AGL
Clouds: sky clear below 12,000 feet AGL
Weather: automated observation with no human augmentation;
there may or may not be significant weather present at this time

METAR text: KNCA 220356Z AUTO 32003KT 10SM CLR M04/M15 A3057 RMK AO2 SLP354 T10391150
Conditions at: KNCA (NEW RIVER MCAS , NC, US) observed 0356 UTC 22 January 2019
Temperature: -3.9°C (25°F)
Dewpoint: -15.0°C ( 5°F) [RH = 42%]
Pressure (altimeter): 30.57 inches Hg (1035.3 mb)
[Sea-level pressure: 1035.4 mb]
Winds: from the NW (320 degrees) at 3 MPH (3 knots; 1.5 m/s)
Visibility: 10 or more miles (16+ km)
Ceiling: at least 12,000 feet AGL
Clouds: sky clear below 12,000 feet AGL
Weather: automated observation with no human augmentation;
there may or may not be significant weather present at this time

METAR text: KNCA 220256Z AUTO 31005KT 10SM CLR M04/M12 A3056 RMK AO2 SLP349 T10441122 51017
Conditions at: KNCA (NEW RIVER MCAS , NC, US) observed 0256 UTC 22 January 2019
Temperature: -4.4°C (24°F)
Dewpoint: -12.2°C (10°F) [RH = 54%]
Pressure (altimeter): 30.56 inches Hg (1035.0 mb)
[Sea-level pressure: 1034.9 mb]
Winds: from the NW (310 degrees) at 6 MPH (5 knots; 2.6 m/s)
Visibility: 10 or more miles (16+ km)
Ceiling: at least 12,000 feet AGL
Clouds: sky clear below 12,000 feet AGL
Weather: automated observation with no human augmentation;
there may or may not be significant weather present at this time

Forecast for: KNCA (NEW RIVER MCAS , NC, US)
Text: TAF KNCA 2309/2409 VRB06KT 9999 SCT030 QNH3041INS
Forecast period: 0900 to 1000 UTC 23 January 2019
Forecast type: FROM: standard forecast or significant change
Winds: variable direction winds at 7 MPH (6 knots; 3.1 m/s)
Visibility: 6 or more miles 10+ km)
Ceiling: at least 12,000 feet AGL
Clouds: scattered clouds at 3000 feet AGL
Weather: no significant weather forecast for this period
Text: TEMPO 2309/2312 VRB06KT 0800 BR OVC002
Forecast period: 0900 to 1200 UTC 23 January 2019
Forecast type: TEMPORARY: The following changes expected for less than half the time period
Winds: variable direction winds at 7 MPH (6 knots; 3.1 m/s)
Visibility: 0.50 miles (0.80 km)
Ceiling: 200 feet AGL
Clouds: overcast cloud deck at 200 feet AGL
Weather: BR  (mist)
Text: BECMG 2310/2312 17008KT 9999 BKN060 QNH3028INS
Forecast period: 1000 to 1800 UTC 23 January 2019
Forecast type: BECOMING: Conditions expected to become as follows by 1200 UTC 23 January 2019
Winds: from the S (170 degrees) at 9 MPH (8 knots; 4.1 m/s)
Visibility: 6 or more miles 10+ km)
Ceiling: 6000 feet AGL
Clouds: broken clouds at 6000 feet AGL
Weather: no significant weather forecast for this period
Text: FM231800 18010KT 9999 OVC010 QNH3003INS T02/2309Z T15/2321Z
Forecast period: 1800 UTC 23 January 2019 to 0900 UTC 24 January 2019
Forecast type: FROM: standard forecast or significant change
Winds: from the S (180 degrees) at 12 MPH (10 knots; 5.1 m/s)
Visibility: 6 or more miles 10+ km)
Ceiling: 1000 feet AGL
Clouds: overcast cloud deck at 1000 feet AGL
Weather: no significant weather forecast for this period